SBCJ/CKS METAR and TAF weather

Enter ICAO airport designator
Station Type Date Time Source
SBCJ METAR 2022/06/30 01:20 UTC NOAA

SBCJ 300120Z 00000KT CAVOK 20/18 Q1019


Station Type Date Time Source
SBCJ Decoded METAR 2022/06/30 01:20 UTC NOAA

Carajas / Maraba, Brazil (SBCJ) 06-07S 050-00W
Jun 29, 2022 - 09:20 PM EDT / 2022.06.30 0120 UTC
Wind: Calm:0
Visibility: greater than 7 mile(s):0
Temperature: 68 F (20 C)
Dew Point: 64 F (18 C)
Relative Humidity: 88%
Pressure (altimeter): 30.09 in. Hg (1019 hPa)
ob: SBCJ 300120Z 00000KT CAVOK 20/18 Q1019
cycle: 1

Station Type Date Time Source
SBCJ TAF 2022/06/30 06:03 UTC NOAA

TAF TAF SBCJ 300100Z 3006/3018 12005KT 9999 FEW025 TN17/3006Z TX28/3016Z
RMK PHD

Example: see airport list